Time;durP1;ratioP1;P1;durP2;ratioP2;P2;SDS_P1;SDS_P2;PMS_P1;PMS_P2;Temp;Humidity;BMP_temperature;BMP_pressure;BME280_temperature;BME280_humidity;BME280_pressure;Samples;Min_cycle;Max_cycle;Signal;HPM_P1;HPM_P2
2022/05/04 00:01:13;;;;;;;;;;;;;;;;;;;;;
2022/05/04 00:04:30;;;;;;;;;;;;;;;19.23;44.08;100859.35;102470;1332;61505;-85
2022/05/04 00:07:15;;;;;;;;;;;;;;;19.24;44.10;100862.30;102038;1337;73457;-87
2022/05/04 00:10:34;;;;;;;;;;;;;;;19.23;44.09;100858.80;101786;1342;75031;-84
2022/05/04 00:13:21;;;;;;;;;;;;;;;;;;;;;
2022/05/04 00:16:07;;;;;;;;;;;;;;;19.23;44.10;100859.68;102550;1328;61358;-82
2022/05/04 00:18:43;;;;;;;;;;;;;;;19.23;44.12;100854.52;102545;1330;74119;-87
2022/05/04 00:21:40;;;;;;;;;;;;;;;19.22;44.14;100856.71;102517;1331;73529;-85
2022/05/04 00:24:25;;;;;;;;;;;;;;;19.23;44.19;100855.61;102533;1330;61249;-86
2022/05/04 00:27:45;;;;;;;;;;;;;;;;;;;;;
2022/05/04 00:30:31;;;;;;;;;;;;;;;19.23;44.14;100852.59;102565;1328;72855;-83
2022/05/04 00:33:19;;;;;;;;;;;;;;;19.22;44.18;100851.72;102542;1331;75890;-85
2022/05/04 00:36:05;;;;;;;;;;;;;;;19.22;44.22;100856.17;102557;1331;61461;-83
2022/05/04 00:38:58;;;;;;;;;;;;;;;19.22;44.18;100857.43;102808;1325;61467;-83
2022/05/04 00:41:47;;;;;;;;;;;;;;;;;;;;;
2022/05/04 00:44:56;;;;;;;;;;;;;;;19.21;44.13;100860.17;103810;1315;76203;-84
2022/05/04 00:47:55;;;;;;;;;;;;;;;19.21;44.07;100863.73;104375;1309;61233;-85
2022/05/04 00:50:33;;;;;;;;;;;;;;;19.22;44.39;100860.66;104495;1309;61828;-85
2022/05/04 00:53:07;;;;;;;;;;;;;;;19.21;44.11;100858.91;104525;1309;72112;-81
2022/05/04 00:56:04;;;;;;;;;;;;;;;19.21;44.27;100858.20;104418;1311;75184;-80
2022/05/04 00:58:59;;;;;;;;;;;;;;;19.21;44.04;100858.59;104449;1311;61307;-85
2022/05/04 01:01:52;;;;;;;;;;;;;;;19.20;44.34;100856.63;104371;1312;61306;-82
2022/05/04 01:05:09;;;;;;;;;;;;;;;;;;;;;
2022/05/04 01:08:03;;;;;;;;;;;;;;;19.20;44.18;100855.39;103475;1317;74852;-81
2022/05/04 01:10:52;;;;;;;;;;;;;;;19.21;44.16;100851.80;104187;1314;61760;-86
2022/05/04 01:13:47;;;;;;;;;;;;;;;19.21;44.21;100854.30;103459;1319;61525;-85
2022/05/04 01:16:28;;;;;;;;;;;;;;;19.21;44.28;100848.61;103241;1322;72863;-81
2022/05/04 01:20:02;;;;;;;;;;;;;;;;;;;;;
2022/05/04 01:22:48;;;;;;;;;;;;;;;19.20;44.06;100851.85;103211;1322;61229;-86
2022/05/04 01:25:37;;;;;;;;;;;;;;;19.20;44.26;100849.52;103209;1323;61217;-83
2022/05/04 01:28:25;;;;;;;;;;;;;;;19.20;44.34;100848.45;103242;1322;72718;-82
2022/05/04 01:31:36;;;;;;;;;;;;;;;19.20;44.25;100846.69;103238;1323;76362;-83
2022/05/04 01:34:28;;;;;;;;;;;;;;;19.20;44.31;100850.80;103210;1322;61328;-84
2022/05/04 01:37:13;;;;;;;;;;;;;;;19.19;44.22;100850.09;103165;1324;61602;-83
2022/05/04 01:40:33;;;;;;;;;;;;;;;19.19;44.37;100850.98;102678;1329;72964;-85
2022/05/04 01:43:08;;;;;;;;;;;;;;;19.20;44.33;100850.25;102302;1335;76042;-85
2022/05/04 01:46:14;;;;;;;;;;;;;;;19.20;44.40;100848.48;102244;1332;61332;-82
2022/05/04 01:49:00;;;;;;;;;;;;;;;19.19;44.34;100849.58;102541;1330;61772;-87
2022/05/04 01:52:26;;;;;;;;;;;;;;;;;;;;;
2022/05/04 01:55:08;;;;;;;;;;;;;;;19.19;44.42;100843.89;102716;1329;73612;-84
2022/05/04 01:58:19;;;;;;;;;;;;;;;19.19;44.35;100838.71;102425;1334;61244;-82
2022/05/04 02:01:07;;;;;;;;;;;;;;;19.19;44.41;100840.15;102414;1335;61184;-81
2022/05/04 02:04:08;;;;;;;;;;;;;;;19.19;44.40;100836.38;102426;1334;71955;-82
2022/05/04 02:06:44;;;;;;;;;;;;;;;19.19;44.39;100835.70;102439;1335;74827;-84
2022/05/04 02:09:53;;;;;;;;;;;;;;;19.19;44.42;100835.53;102368;1335;62251;-87
2022/05/04 02:12:48;;;;;;;;;;;;;;;19.18;44.48;100835.74;101934;1338;61341;-85
2022/05/04 02:15:54;;;;;;;;;;;;;;;19.18;44.45;100832.88;101945;1338;73325;-82
2022/05/04 02:18:29;;;;;;;;;;;;;;;19.18;44.41;100832.73;101877;1338;75901;-82
2022/05/04 02:21:29;;;;;;;;;;;;;;;19.18;44.53;100836.46;102076;1335;61745;-81
2022/05/04 02:24:16;;;;;;;;;;;;;;;;;;;;;
2022/05/04 02:27:23;;;;;;;;;;;;;;;19.18;44.49;100843.08;102318;1335;74307;-82
2022/05/04 02:30:17;;;;;;;;;;;;;;;19.18;44.51;100849.51;102351;1335;75934;-81
2022/05/04 02:33:03;;;;;;;;;;;;;;;19.17;44.54;100848.45;102371;1332;61207;-80
2022/05/04 02:39:23;;;;;;;;;;;;;;;19.17;44.52;100849.36;102748;1327;72833;-85
2022/05/04 02:42:10;;;;;;;;;;;;;;;19.16;44.58;100846.89;102719;1329;75966;-84
2022/05/04 02:44:47;;;;;;;;;;;;;;;;;;;;;
2022/05/04 02:47:46;;;;;;;;;;;;;;;19.16;44.52;100849.77;102526;1329;61368;-85
2022/05/04 02:50:41;;;;;;;;;;;;;;;19.17;44.45;100854.19;103629;1316;72824;-87
2022/05/04 02:53:32;;;;;;;;;;;;;;;19.16;44.41;100852.46;104179;1317;75967;-88
2022/05/04 02:56:29;;;;;;;;;;;;;;;19.16;44.57;100849.27;103145;1322;61314;-83
2022/05/04 02:59:13;;;;;;;;;;;;;;;19.16;44.51;100846.97;103157;1322;61956;-87
2022/05/04 03:05:09;;;;;;;;;;;;;;;;;;;;;
2022/05/04 03:08:10;;;;;;;;;;;;;;;19.15;44.65;100845.92;102551;1331;61532;-84
2022/05/04 03:14:09;;;;;;;;;;;;;;;19.15;44.61;100841.84;102558;1328;74306;-82
2022/05/04 03:17:03;;;;;;;;;;;;;;;;;;;;;
2022/05/04 03:19:40;;;;;;;;;;;;;;;19.15;44.65;100847.55;102631;1328;61373;-80
2022/05/04 03:22:13;;;;;;;;;;;;;;;19.15;44.60;100848.98;102606;1328;61390;-83
2022/05/04 03:25:12;;;;;;;;;;;;;;;19.15;44.66;100849.89;102577;1328;75800;-82
2022/05/04 03:28:08;;;;;;;;;;;;;;;19.14;44.59;100852.56;102411;1333;73610;-82
2022/05/04 03:30:53;;;;;;;;;;;;;;;;;;;;;
2022/05/04 03:33:42;;;;;;;;;;;;;;;19.15;44.70;100859.14;102483;1329;61547;-85
2022/05/04 03:36:28;;;;;;;;;;;;;;;19.15;44.67;100857.91;102419;1335;72940;-85
2022/05/04 03:39:19;;;;;;;;;;;;;;;19.15;44.65;100858.09;102135;1334;77446;-84
2022/05/04 03:42:26;;;;;;;;;;;;;;;19.15;44.70;100866.44;101996;1337;61217;-85
2022/05/04 03:45:12;;;;;;;;;;;;;;;19.15;44.65;100874.64;102066;1337;61651;-86
2022/05/04 03:47:59;;;;;;;;;;;;;;;19.15;44.58;100878.02;102247;1332;75018;-82
2022/05/04 03:51:08;;;;;;;;;;;;;;;;;;;;;
2022/05/04 03:53:40;;;;;;;;;;;;;;;19.15;44.68;100883.38;102362;1334;61463;-86
2022/05/04 03:56:49;;;;;;;;;;;;;;;19.15;44.61;100880.67;102323;1333;62026;-86
2022/05/04 03:59:34;;;;;;;;;;;;;;;19.16;44.61;100884.94;102300;1335;72691;-80
2022/05/04 04:02:19;;;;;;;;;;;;;;;19.16;44.65;100885.45;101863;1341;75005;-84
2022/05/04 04:05:28;;;;;;;;;;;;;;;19.16;44.61;100891.02;101974;1335;61947;-83
2022/05/04 04:08:34;;;;;;;;;;;;;;;19.15;44.60;100889.27;102114;1334;61463;-84
2022/05/04 04:11:29;;;;;;;;;;;;;;;19.14;44.61;100891.12;101797;1338;71718;-85
2022/05/04 04:14:29;;;;;;;;;;;;;;;19.14;44.52;100889.35;102004;1338;74705;-83
2022/05/04 04:17:17;;;;;;;;;;;;;;;19.13;44.50;100886.73;102257;1335;61484;-84
2022/05/04 04:23:34;;;;;;;;;;;;;;;19.13;44.47;100889.07;101844;1338;71603;-83
2022/05/04 04:26:18;;;;;;;;;;;;;;;19.13;44.47;100895.45;101826;1338;75347;-82
2022/05/04 04:28:58;;;;;;;;;;;;;;;19.13;44.46;100894.39;101749;1338;61321;-84
2022/05/04 04:31:33;;;;;;;;;;;;;;;19.13;44.40;100894.02;102022;1331;61536;-83
2022/05/04 04:34:07;;;;;;;;;;;;;;;19.13;44.30;100890.45;102107;1332;72864;-81
2022/05/04 04:36:35;;;;;;;;;;;;;;;19.13;44.35;100892.25;102267;1331;74686;-83
2022/05/04 04:39:04;;;;;;;;;;;;;;;19.12;44.26;100893.17;102038;1325;61355;-81
2022/05/04 04:41:30;;;;;;;;;;;;;;;19.13;44.30;100893.00;102279;1324;61351;-82
2022/05/04 04:43:55;;;;;;;;;;;;;;;19.12;44.29;100892.70;102333;1323;61319;-83
2022/05/04 04:46:21;;;;;;;;;;;;;;;19.12;44.21;100896.45;102493;1323;61568;-81
2022/05/04 04:48:49;;;;;;;;;;;;;;;19.11;44.19;100900.41;102760;1320;60155;-81
2022/05/04 04:51:17;;;;;;;;;;;;;;;19.11;44.15;100895.79;102899;1322;61300;-81
2022/05/04 04:53:43;;;;;;;;;;;;;;;19.10;44.04;100896.54;102649;1322;72632;-81
2022/05/04 04:56:08;;;;;;;;;;;;;;;19.08;43.96;100895.95;102746;1320;61669;-81
2022/05/04 04:58:34;;;;;;;;;;;;;;;19.06;43.85;100892.34;103266;1313;61342;-81
2022/05/04 05:00:59;;;;;;;;;;;;;;;19.06;43.95;100898.39;103768;1306;61822;-83
2022/05/04 05:03:25;;;;;;;;;;;;;;;19.06;43.69;100900.38;104026;1303;60035;-84
2022/05/04 05:05:51;;;;;;;;;;;;;;;19.03;43.70;100904.78;105426;1303;72931;-81
2022/05/04 05:08:16;;;;;;;;;;;;;;;19.00;43.75;100906.41;105291;1303;59999;-84
2022/05/04 05:10:41;;;;;;;;;;;;;;;19.00;43.72;100904.44;105483;1303;59488;-82
2022/05/04 05:13:07;;;;;;;;;;;;;;;19.01;43.79;100907.05;105545;1303;59546;-82
2022/05/04 05:18:21;;;;;;;;;;;;;;;19.05;43.71;100907.34;105538;1303;73213;-82
2022/05/04 05:20:46;;;;;;;;;;;;;;;19.06;43.74;100905.84;104287;1306;61316;-81
2022/05/04 05:23:14;;;;;;;;;;;;;;;19.07;43.66;100906.88;103824;1306;61224;-81
2022/05/04 05:25:39;;;;;;;;;;;;;;;19.09;43.59;100902.30;103996;1305;61310;-82
2022/05/04 05:28:05;;;;;;;;;;;;;;;19.10;43.54;100908.30;103849;1306;61423;-81
2022/05/04 05:30:31;;;;;;;;;;;;;;;19.11;43.63;100907.90;103947;1306;61623;-83
2022/05/04 05:32:57;;;;;;;;;;;;;;;19.11;43.40;100909.85;104009;1306;59976;-83
2022/05/04 05:35:22;;;;;;;;;;;;;;;19.10;43.49;100913.66;104010;1306;61392;-81
2022/05/04 05:37:48;;;;;;;;;;;;;;;19.10;43.50;100917.39;103844;1306;61435;-82
2022/05/04 05:40:13;;;;;;;;;;;;;;;19.12;43.44;100922.66;103920;1306;61480;-81
2022/05/04 05:42:39;;;;;;;;;;;;;;;19.12;43.33;100926.91;103854;1306;61362;-83
2022/05/04 05:45:05;;;;;;;;;;;;;;;19.10;43.25;100933.28;103931;1305;61387;-84
2022/05/04 05:47:30;;;;;;;;;;;;;;;19.10;43.15;100932.58;103842;1306;61252;-82
2022/05/04 05:49:56;;;;;;;;;;;;;;;19.11;43.25;100928.42;103937;1306;61326;-81
2022/05/04 05:52:21;;;;;;;;;;;;;;;19.12;43.03;100933.37;103857;1306;61333;-83
2022/05/04 05:54:47;;;;;;;;;;;;;;;19.09;43.10;100933.86;103909;1306;59730;-80
2022/05/04 05:57:12;;;;;;;;;;;;;;;19.03;42.88;100930.66;103798;1308;61354;-82
2022/05/04 05:59:38;;;;;;;;;;;;;;;18.94;42.95;100930.11;104158;1303;61130;-80
2022/05/04 06:02:03;;;;;;;;;;;;;;;18.86;42.96;100925.95;103721;1306;61310;-80
2022/05/04 06:04:32;;;;;;;;;;;;;;;18.82;42.80;100929.08;104029;1306;60504;-80
2022/05/04 06:07:25;;;;;;;;;;;;;;;18.82;42.88;100928.15;104068;1306;75793;-85
2022/05/04 06:09:51;;;;;;;;;;;;;;;18.86;42.88;100932.73;103426;1313;61279;-82
2022/05/04 06:12:16;;;;;;;;;;;;;;;18.90;43.04;100930.16;103315;1314;61409;-82
2022/05/04 06:14:43;;;;;;;;;;;;;;;18.95;42.82;100934.33;103443;1313;61322;-82
2022/05/04 06:17:08;;;;;;;;;;;;;;;19.00;42.92;100940.16;103504;1313;61660;-83
2022/05/04 06:19:35;;;;;;;;;;;;;;;19.03;42.91;100942.28;103386;1315;61735;-82
2022/05/04 06:22:00;;;;;;;;;;;;;;;19.05;42.90;100947.32;103599;1313;61612;-82
2022/05/04 06:24:28;;;;;;;;;;;;;;;19.07;42.94;100944.70;103488;1313;61330;-81
2022/05/04 06:26:54;;;;;;;;;;;;;;;19.09;42.80;100946.20;103497;1314;74034;-82
2022/05/04 06:29:19;;;;;;;;;;;;;;;19.11;42.70;100946.98;103475;1313;61831;-82
2022/05/04 06:34:29;;;;;;;;;;;;;;;19.14;42.74;100952.84;103396;1313;64208;-82
2022/05/04 06:36:55;;;;;;;;;;;;;;;19.11;42.57;100951.77;103569;1313;61363;-81
2022/05/04 06:39:20;;;;;;;;;;;;;;;19.09;42.61;100952.81;103321;1314;61360;-81
2022/05/04 06:41:47;;;;;;;;;;;;;;;19.08;42.75;100950.14;103382;1314;61343;-82
2022/05/04 06:44:47;;;;;;;;;;;;;;;19.10;42.67;100956.45;103333;1314;61423;-82
2022/05/04 06:47:12;;;;;;;;;;;;;;;19.13;42.50;100958.83;102897;1314;73128;-81
2022/05/04 06:49:39;;;;;;;;;;;;;;;19.13;42.45;100962.02;103435;1313;62788;-81
2022/05/04 06:52:05;;;;;;;;;;;;;;;19.06;42.28;100965.44;101963;1313;1943554;-80
2022/05/04 06:54:30;;;;;;;;;;;;;;;18.99;42.30;100964.43;103289;1313;61472;-81
2022/05/04 06:56:56;;;;;;;;;;;;;;;18.94;42.46;100970.82;103289;1313;61341;-81
2022/05/04 06:59:23;;;;;;;;;;;;;;;18.82;42.29;100968.65;103350;1313;61361;-81
2022/05/04 07:01:49;;;;;;;;;;;;;;;18.63;42.34;100967.98;103381;1313;73775;-83
2022/05/04 07:04:16;;;;;;;;;;;;;;;18.64;42.53;100963.28;103146;1314;61409;-80
2022/05/04 07:06:42;;;;;;;;;;;;;;;18.67;42.37;100960.96;103277;1313;61429;-79
2022/05/04 07:09:07;;;;;;;;;;;;;;;18.68;42.44;100962.31;103465;1312;61422;-80
2022/05/04 07:11:33;;;;;;;;;;;;;;;18.71;42.67;100958.38;103322;1313;61463;-81
2022/05/04 07:13:58;;;;;;;;;;;;;;;18.73;42.61;100960.23;103344;1314;61814;-80
2022/05/04 07:16:24;;;;;;;;;;;;;;;18.64;42.63;100955.74;103549;1313;61321;-82
2022/05/04 07:19:16;;;;;;;;;;;;;;;18.65;42.72;100958.70;103606;1313;61528;-81
2022/05/04 07:21:42;;;;;;;;;;;;;;;18.56;42.64;100960.34;102832;1319;72870;-80
2022/05/04 07:24:11;;;;;;;;;;;;;;;18.55;42.58;100956.98;103009;1314;61494;-81
2022/05/04 07:26:37;;;;;;;;;;;;;;;18.48;42.59;100959.52;103846;1313;61397;-81
2022/05/04 07:29:03;;;;;;;;;;;;;;;18.40;42.48;100960.14;103312;1314;61682;-79
2022/05/04 07:31:28;;;;;;;;;;;;;;;18.41;42.68;100958.86;103461;1313;60123;-80
2022/05/04 07:34:04;;;;;;;;;;;;;;;18.50;42.54;100956.91;103563;1313;61662;-81
2022/05/04 07:36:29;;;;;;;;;;;;;;;18.61;42.66;100959.50;103317;1314;61247;-82
2022/05/04 07:38:55;;;;;;;;;;;;;;;18.69;42.41;100957.05;103535;1314;61232;-80
2022/05/04 07:44:07;;;;;;;;;;;;;;;18.81;42.52;100962.80;103523;1313;76302;-80
2022/05/04 07:46:33;;;;;;;;;;;;;;;18.84;42.37;100964.21;104122;1313;61434;-83
2022/05/04 07:49:00;;;;;;;;;;;;;;;18.85;42.42;100963.45;103575;1313;61236;-81
2022/05/04 07:51:26;;;;;;;;;;;;;;;18.89;42.44;100964.11;103641;1313;61416;-81
2022/05/04 07:53:51;;;;;;;;;;;;;;;18.92;42.33;100969.83;103427;1313;61319;-81
2022/05/04 07:56:17;;;;;;;;;;;;;;;18.88;42.09;100970.75;103150;1314;61502;-81
2022/05/04 07:58:42;;;;;;;;;;;;;;;18.83;42.16;100973.38;103572;1306;61399;-80
2022/05/04 08:06:39;;;;;;;;;;;;;;;18.82;42.41;100980.05;103969;1303;61581;-82
2022/05/04 08:09:05;;;;;;;;;;;;;;;18.80;42.02;100980.52;104013;1306;61282;-81
2022/05/04 08:11:30;;;;;;;;;;;;;;;18.66;41.87;100983.45;103989;1306;61329;-81
2022/05/04 08:13:56;;;;;;;;;;;;;;;18.53;41.79;100983.85;103793;1306;62774;-80
2022/05/04 08:16:21;;;;;;;;;;;;;;;18.53;42.13;100980.66;103966;1305;62005;-80
2022/05/04 08:18:47;;;;;;;;;;;;;;;18.63;42.11;100981.70;103966;1306;61316;-81
2022/05/04 08:21:15;;;;;;;;;;;;;;;18.70;42.16;100981.98;103820;1306;61132;-80
2022/05/04 08:23:40;;;;;;;;;;;;;;;18.76;42.36;100982.33;103909;1306;72845;-81
2022/05/04 08:26:07;;;;;;;;;;;;;;;18.83;41.93;100981.20;104067;1303;61321;-81
2022/05/04 08:28:33;;;;;;;;;;;;;;;18.90;42.04;100977.09;104070;1303;61287;-81
2022/05/04 08:30:59;;;;;;;;;;;;;;;18.96;42.20;100977.13;103974;1306;61342;-81
2022/05/04 08:33:25;;;;;;;;;;;;;;;19.01;42.03;100970.39;104086;1303;61293;-81
2022/05/04 08:35:51;;;;;;;;;;;;;;;19.04;42.13;100972.17;104124;1303;61403;-80
2022/05/04 08:38:16;;;;;;;;;;;;;;;19.03;41.95;100976.66;104110;1306;61322;-81
2022/05/04 08:40:42;;;;;;;;;;;;;;;19.01;41.93;100981.65;104170;1306;61297;-81
2022/05/04 08:43:08;;;;;;;;;;;;;;;19.00;41.87;100980.98;104144;1306;61303;-80
2022/05/04 08:45:37;;;;;;;;;;;;;;;19.02;41.77;100983.20;104294;1304;73559;-81
2022/05/04 08:48:32;;;;;;;;;;;;;;;19.04;41.53;100983.95;104040;1308;75816;-83
2022/05/04 08:51:03;;;;;;;;;;;;;;;19.04;41.84;100982.66;103309;1313;61426;-80
2022/05/04 08:53:28;;;;;;;;;;;;;;;19.06;41.73;100982.93;104638;1313;60112;-81
2022/05/04 08:55:54;;;;;;;;;;;;;;;19.11;41.74;100984.95;104640;1313;59891;-80
2022/05/04 08:58:20;;;;;;;;;;;;;;;19.13;41.70;100986.80;104562;1313;59380;-80
2022/05/04 09:00:46;;;;;;;;;;;;;;;19.12;41.54;100986.71;103663;1313;61436;-80
2022/05/04 09:03:11;;;;;;;;;;;;;;;19.11;41.74;100983.91;102888;1314;63016;-80
2022/05/04 09:05:40;;;;;;;;;;;;;;;19.11;41.62;100984.25;103261;1313;61513;-80
2022/05/04 09:08:06;;;;;;;;;;;;;;;19.12;41.77;100989.01;103080;1314;72850;-81
2022/05/04 09:10:35;;;;;;;;;;;;;;;19.13;41.73;100988.57;103270;1313;61357;-81
2022/05/04 09:13:02;;;;;;;;;;;;;;;19.12;41.90;100994.03;103188;1313;61396;-81
2022/05/04 09:15:33;;;;;;;;;;;;;;;19.06;41.79;100989.52;103245;1314;59781;-79
2022/05/04 09:18:33;;;;;;;;;;;;;;;19.07;41.78;100985.91;103192;1313;72559;-81
2022/05/04 09:21:04;;;;;;;;;;;;;;;19.04;41.79;100993.41;102774;1319;75649;-82
2022/05/04 09:23:30;;;;;;;;;;;;;;;19.00;41.70;100995.95;102736;1319;61593;-81
2022/05/04 09:25:58;;;;;;;;;;;;;;;19.00;41.82;100989.53;102744;1319;61388;-80
2022/05/04 09:28:27;;;;;;;;;;;;;;;19.03;41.84;100982.91;102958;1314;73039;-80
2022/05/04 09:30:56;;;;;;;;;;;;;;;19.05;41.83;100981.55;103261;1314;74735;-81
2022/05/04 09:33:26;;;;;;;;;;;;;;;19.06;41.80;100976.52;103218;1314;61239;-83
2022/05/04 09:35:51;;;;;;;;;;;;;;;19.07;41.82;100975.20;104931;1313;60416;-82
2022/05/04 09:46:39;;;;;;;;;;;;;;;19.18;42.12;100959.20;103522;1313;61362;-81
2022/05/04 09:49:13;;;;;;;;;;;;;;;19.20;42.31;100956.38;103359;1313;73883;-80
2022/05/04 09:51:39;;;;;;;;;;;;;;;19.23;42.16;100954.97;103253;1313;74607;-80
2022/05/04 09:54:12;;;;;;;;;;;;;;;19.23;41.99;100957.27;103272;1313;61302;-80
2022/05/04 09:56:44;;;;;;;;;;;;;;;19.23;42.03;100947.64;103717;1306;61203;-81
2022/05/04 09:59:12;;;;;;;;;;;;;;;19.25;42.01;100949.29;103524;1306;71517;-80
2022/05/04 10:01:38;;;;;;;;;;;;;;;19.26;42.20;100943.88;103625;1305;75484;-80
2022/05/04 10:04:04;;;;;;;;;;;;;;;19.27;42.15;100943.13;103684;1306;61385;-80
2022/05/04 10:06:30;;;;;;;;;;;;;;;19.23;41.67;100934.95;103898;1306;61275;-81
2022/05/04 10:08:56;;;;;;;;;;;;;;;19.21;41.80;100935.81;103699;1306;61510;-80
2022/05/04 10:11:21;;;;;;;;;;;;;;;19.22;41.86;100932.02;103807;1303;61382;-81
2022/05/04 10:13:47;;;;;;;;;;;;;;;19.20;41.61;100932.66;104012;1303;61421;-80
2022/05/04 10:16:12;;;;;;;;;;;;;;;19.18;41.66;100926.73;103914;1306;61245;-80
2022/05/04 10:18:38;;;;;;;;;;;;;;;19.20;41.66;100933.40;104092;1306;61304;-81
2022/05/04 10:21:12;;;;;;;;;;;;;;;19.19;41.40;100931.11;104124;1303;61629;-80
2022/05/04 10:23:40;;;;;;;;;;;;;;;19.18;41.42;100933.30;103976;1306;74721;-81
2022/05/04 10:26:05;;;;;;;;;;;;;;;19.21;41.81;100928.30;104073;1303;61161;-81
2022/05/04 10:28:37;;;;;;;;;;;;;;;19.26;41.88;100927.14;103965;1303;61331;-80
2022/05/04 10:31:11;;;;;;;;;;;;;;;19.29;41.79;100923.58;103713;1306;72994;-80
2022/05/04 10:33:37;;;;;;;;;;;;;;;19.30;41.73;100923.85;103773;1306;74836;-81
2022/05/04 10:36:20;;;;;;;;;;;;;;;19.31;41.88;100919.86;103855;1306;61311;-81
2022/05/04 10:38:50;;;;;;;;;;;;;;;19.31;41.63;100919.52;103943;1306;61389;-80
2022/05/04 10:41:15;;;;;;;;;;;;;;;19.32;41.61;100921.44;103850;1306;71996;-80
2022/05/04 10:43:47;;;;;;;;;;;;;;;19.32;41.44;100918.40;103717;1306;61339;-80
2022/05/04 10:46:16;;;;;;;;;;;;;;;19.29;41.04;100922.33;104111;1306;61577;-81
2022/05/04 10:48:43;;;;;;;;;;;;;;;19.28;40.93;100925.95;105401;1303;59895;-80
2022/05/04 10:51:12;;;;;;;;;;;;;;;19.30;41.10;100928.52;105265;1304;59745;-80
2022/05/04 10:53:39;;;;;;;;;;;;;;;19.33;41.01;100926.88;105126;1306;74949;-81
2022/05/04 10:56:27;;;;;;;;;;;;;;;19.36;41.13;100929.21;105234;1306;59229;-80
2022/05/04 10:58:59;;;;;;;;;;;;;;;19.38;40.94;100934.06;105143;1306;59469;-81
2022/05/04 11:01:25;;;;;;;;;;;;;;;19.40;40.87;100934.98;105468;1303;72681;-82
2022/05/04 11:03:54;;;;;;;;;;;;;;;19.44;40.93;100939.23;105370;1306;59585;-82
2022/05/04 11:06:23;;;;;;;;;;;;;;;19.46;40.60;100938.40;105530;1302;61231;-81
2022/05/04 11:08:49;;;;;;;;;;;;;;;19.47;40.55;100942.11;105358;1305;60560;-81
2022/05/04 11:11:14;;;;;;;;;;;;;;;19.46;40.31;100938.55;105442;1303;59211;-81
2022/05/04 11:13:42;;;;;;;;;;;;;;;19.46;40.22;100938.42;105690;1303;59085;-80
2022/05/04 11:16:08;;;;;;;;;;;;;;;19.47;40.25;100934.79;105704;1303;58472;-81
2022/05/04 11:18:35;;;;;;;;;;;;;;;19.48;40.20;100930.95;105515;1306;59526;-81
2022/05/04 11:21:05;;;;;;;;;;;;;;;19.51;40.35;100920.58;105516;1305;59373;-81
2022/05/04 11:23:32;;;;;;;;;;;;;;;19.52;40.26;100929.42;104343;1303;74619;-82
2022/05/04 11:25:58;;;;;;;;;;;;;;;19.53;40.35;100926.90;104244;1303;61464;-84
2022/05/04 11:28:24;;;;;;;;;;;;;;;19.53;40.32;100922.43;105553;1303;59183;-82
2022/05/04 11:30:52;;;;;;;;;;;;;;;19.54;40.16;100922.03;104631;1305;61455;-82
2022/05/04 11:33:17;;;;;;;;;;;;;;;19.54;40.19;100924.52;104206;1305;61313;-82
2022/05/04 11:35:44;;;;;;;;;;;;;;;19.54;40.12;100929.70;104196;1306;61517;-82
2022/05/04 11:38:22;;;;;;;;;;;;;;;19.55;40.31;100925.90;104136;1306;61246;-82
2022/05/04 11:40:49;;;;;;;;;;;;;;;19.55;40.09;100921.08;104186;1306;72057;-82
2022/05/04 11:43:21;;;;;;;;;;;;;;;19.57;40.17;100920.77;103976;1306;61455;-82
2022/05/04 11:45:48;;;;;;;;;;;;;;;19.56;39.90;100919.41;104080;1306;61310;-81
2022/05/04 11:48:16;;;;;;;;;;;;;;;19.54;39.49;100923.80;104099;1306;61333;-83
2022/05/04 11:50:43;;;;;;;;;;;;;;;19.51;39.41;100921.48;104023;1305;73679;-83
2022/05/04 11:53:08;;;;;;;;;;;;;;;19.50;38.91;100915.86;103979;1306;74823;-79
2022/05/04 11:55:35;;;;;;;;;;;;;;;19.48;39.01;100910.09;104016;1305;60018;-82
2022/05/04 11:58:01;;;;;;;;;;;;;;;19.49;38.87;100915.36;103972;1306;61458;-80
2022/05/04 12:00:27;;;;;;;;;;;;;;;19.48;38.64;100912.02;105604;1306;59152;-80
2022/05/04 12:02:56;;;;;;;;;;;;;;;19.50;38.84;100912.84;105786;1303;58936;-81
2022/05/04 12:05:22;;;;;;;;;;;;;;;19.50;38.75;100911.41;105414;1306;61973;-81
2022/05/04 12:07:48;;;;;;;;;;;;;;;19.50;38.57;100914.02;105550;1306;60370;-81
2022/05/04 12:10:13;;;;;;;;;;;;;;;19.51;38.70;100915.57;105516;1305;59321;-80
2022/05/04 12:12:39;;;;;;;;;;;;;;;19.52;38.72;100912.66;105121;1306;61272;-80
2022/05/04 12:15:05;;;;;;;;;;;;;;;19.54;38.60;100909.89;104148;1306;61263;-81
2022/05/04 12:17:36;;;;;;;;;;;;;;;19.55;38.65;100907.10;104034;1306;61404;-82
2022/05/04 12:20:01;;;;;;;;;;;;;;;19.56;38.31;100906.55;104257;1306;74332;-84
2022/05/04 12:22:28;;;;;;;;;;;;;;;19.53;38.33;100908.16;104298;1306;61403;-83
2022/05/04 12:24:53;;;;;;;;;;;;;;;19.52;38.06;100906.63;104341;1306;61250;-82
2022/05/04 12:27:19;;;;;;;;;;;;;;;19.53;38.14;100903.53;104376;1305;61409;-82
2022/05/04 12:35:38;;;;;;;;;;;;;;;19.56;38.09;100910.14;104063;1306;61491;-82
2022/05/04 12:38:05;;;;;;;;;;;;;;;19.56;37.87;100909.39;103826;1313;61317;-81
2022/05/04 12:40:56;;;;;;;;;;;;;;;19.56;37.83;100907.42;104126;1313;60114;-82
2022/05/04 12:43:32;;;;;;;;;;;;;;;19.55;37.83;100913.70;103373;1319;74906;-82
2022/05/04 12:46:31;;;;;;;;;;;;;;;19.53;37.39;100919.77;103444;1319;61294;-82
2022/05/04 12:48:57;;;;;;;;;;;;;;;19.47;36.97;100916.56;102908;1323;61251;-83
2022/05/04 12:51:41;;;;;;;;;;;;;;;19.45;37.11;100922.05;103039;1322;73821;-83
2022/05/04 12:54:36;;;;;;;;;;;;;;;19.46;37.13;100918.27;103070;1323;74859;-85
2022/05/04 12:57:04;;;;;;;;;;;;;;;19.47;37.28;100916.58;103101;1322;61285;-84
2022/05/04 12:59:53;;;;;;;;;;;;;;;19.47;37.04;100915.17;102861;1323;61235;-80
2022/05/04 13:02:44;;;;;;;;;;;;;;;19.46;37.13;100916.42;103007;1323;72108;-83
2022/05/04 13:05:19;;;;;;;;;;;;;;;19.47;37.12;100917.83;103123;1323;76210;-81
2022/05/04 13:08:08;;;;;;;;;;;;;;;19.48;37.20;100919.52;103040;1324;61614;-82
2022/05/04 13:11:05;;;;;;;;;;;;;;;19.48;37.36;100919.36;103099;1322;60624;-82
2022/05/04 13:13:52;;;;;;;;;;;;;;;19.49;37.45;100920.36;103132;1322;72653;-81
2022/05/04 13:16:41;;;;;;;;;;;;;;;19.50;37.51;100923.70;103400;1319;76250;-83
2022/05/04 13:19:42;;;;;;;;;;;;;;;19.51;37.58;100923.79;103797;1317;61175;-81
2022/05/04 13:22:16;;;;;;;;;;;;;;;19.52;37.76;100922.66;104192;1312;61237;-81
2022/05/04 13:25:01;;;;;;;;;;;;;;;;;;;;;
2022/05/04 13:27:59;;;;;;;;;;;;;;;19.55;37.98;100925.55;104819;1306;73854;-82
2022/05/04 13:31:01;;;;;;;;;;;;;;;19.55;38.18;100921.58;104858;1305;61262;-80
2022/05/04 13:33:47;;;;;;;;;;;;;;;19.57;38.18;100924.48;104234;1314;61209;-85
2022/05/04 13:36:46;;;;;;;;;;;;;;;19.59;38.37;100924.58;103293;1323;71776;-84
2022/05/04 13:39:20;;;;;;;;;;;;;;;19.60;38.58;100926.63;103370;1320;74981;-82
2022/05/04 13:42:27;;;;;;;;;;;;;;;19.62;38.60;100930.48;103269;1323;61373;-81
2022/05/04 13:45:12;;;;;;;;;;;;;;;19.63;38.66;100930.06;103226;1322;61168;-83
2022/05/04 13:47:40;;;;;;;;;;;;;;;19.62;38.69;100926.50;103433;1320;73110;-85
2022/05/04 13:53:49;;;;;;;;;;;;;;;19.63;38.91;100932.02;102987;1325;61154;-81
2022/05/04 13:56:28;;;;;;;;;;;;;;;;;;;;;
2022/05/04 13:59:04;;;;;;;;;;;;;;;19.63;39.05;100932.02;103020;1325;72671;-88
2022/05/04 14:02:01;;;;;;;;;;;;;;;19.62;39.17;100937.02;103015;1326;74677;-83
2022/05/04 14:04:54;;;;;;;;;;;;;;;19.63;39.21;100936.98;102804;1325;61466;-79
2022/05/04 14:07:39;;;;;;;;;;;;;;;;;;;;;
2022/05/04 14:10:50;;;;;;;;;;;;;;;19.62;39.33;100932.73;103347;1319;71439;-83
2022/05/04 14:13:30;;;;;;;;;;;;;;;19.63;39.37;100933.95;103845;1312;74817;-83
2022/05/04 14:16:12;;;;;;;;;;;;;;;;;;;;;
2022/05/04 14:18:58;;;;;;;;;;;;;;;19.64;39.28;100938.39;104394;1312;61512;-84
2022/05/04 14:21:51;;;;;;;;;;;;;;;19.63;39.37;100932.55;104012;1318;71818;-84
2022/05/04 14:25:02;;;;;;;;;;;;;;;19.63;39.67;100938.63;103842;1318;75530;-85